Terminal Aerodrome Forecast
Issued by NWS Binghamton, NY

Current Version | Previous Version | Text Only | Print | Product List | Glossary On
Versions: 1 2 3 4 5 6 7 8 9 10 11 12 13 14 15 16
000
FTUS41 KBGM 242345 RRA
TAFAVP
TAF
KAVP 242345Z 2500/2524 VRB03KT P6SM SCT100 BKN250
      TEMPO 2502/2505 5SM -SHRA OVC040
     FM251100 25007KT P6SM SCT050 BKN150
      TEMPO 2515/2518 3SM -TSRA BR SCT030CB BKN060
     FM252000 22006KT P6SM SCT040 SCT100=

USA.gov is the U.S. government's official web portal to all federal, state and local government web resources and services.